Terminal Aerodrome Forecast
Issued by NWS Wichita, KS

Home | Current Version | Previous Version | Text Only | Print | Product List | Glossary Off
Versions: 1 2 3 4 5 6 7 8 9 10 11 12 13 14 15 16 17

000
FTUS43 KICT 162300
TAFICT
TAF
KICT 162322Z 1700/1724 15008KT P6SM SKC
     FM170600 17008KT 5SM BR SCT011 BKN020
     FM171500 20010KT P6SM SCT040
      TEMPO 1715/1718 BKN025=

USA.gov is the U.S. government's official web portal to all federal, state and local government web resources and services.